createdAt,value
2016-11-11T00:00:46.890Z,3.76
2016-11-11T00:01:55.543Z,3.73
2016-11-11T00:03:04.189Z,3.68
2016-11-11T00:04:12.812Z,3.72
2016-11-11T00:05:21.444Z,3.73
2016-11-11T00:06:30.065Z,3.72
2016-11-11T00:07:38.686Z,3.76
2016-11-11T00:08:47.290Z,3.68
2016-11-11T00:09:55.904Z,3.75
2016-11-11T00:11:04.634Z,3.78
2016-11-11T00:12:13.228Z,3.86
2016-11-11T00:13:21.878Z,3.8
2016-11-11T00:14:30.502Z,3.9
2016-11-11T00:15:39.126Z,3.75
2016-11-11T00:16:47.734Z,3.76
2016-11-11T00:17:56.375Z,3.73
2016-11-11T00:19:05.004Z,3.8
2016-11-11T00:20:13.627Z,3.79
2016-11-11T00:21:22.243Z,3.7
2016-11-11T00:22:30.865Z,3.8
2016-11-11T00:23:39.792Z,3.75
2016-11-11T00:24:48.456Z,3.75
2016-11-11T00:25:57.078Z,3.83
2016-11-11T00:27:05.719Z,3.8
2016-11-11T00:28:14.372Z,3.76
2016-11-11T00:29:22.999Z,3.78
2016-11-11T00:30:31.625Z,3.84
2016-11-11T00:31:40.253Z,3.79
2016-11-11T00:32:48.883Z,3.86
2016-11-11T00:33:57.496Z,3.9
2016-11-11T00:35:06.155Z,3.88
2016-11-11T00:36:14.801Z,3.79
2016-11-11T00:37:23.399Z,3.84
2016-11-11T00:38:32.030Z,3.84
2016-11-11T00:39:40.681Z,3.83
2016-11-11T00:40:49.310Z,3.84
2016-11-11T00:41:57.930Z,3.88
2016-11-11T00:43:06.564Z,3.96
2016-11-11T00:44:15.220Z,4
2016-11-11T00:45:23.840Z,3.94
2016-11-11T00:46:32.465Z,3.98
2016-11-11T00:47:41.103Z,3.93
2016-11-11T00:48:49.728Z,3.94
2016-11-11T00:49:58.356Z,4
2016-11-11T00:51:06.994Z,3.96
2016-11-11T00:52:15.613Z,4.05
2016-11-11T00:53:24.248Z,4.04
2016-11-11T00:54:32.888Z,3.94
2016-11-11T00:55:41.534Z,4.02
2016-11-11T00:56:50.472Z,3.96
2016-11-11T00:57:59.118Z,4.02
2016-11-11T00:59:07.772Z,3.93
2016-11-11T01:00:16.714Z,3.96
2016-11-11T01:01:25.310Z,3.91
2016-11-11T01:02:33.934Z,3.91
2016-11-11T01:03:42.560Z,3.88
2016-11-11T01:04:51.182Z,3.91
2016-11-11T01:05:59.836Z,3.87
2016-11-11T01:07:08.461Z,3.87
2016-11-11T01:08:17.104Z,3.8
2016-11-11T01:09:25.735Z,3.8
2016-11-11T01:10:34.350Z,3.86
2016-11-11T01:11:42.975Z,3.87
2016-11-11T01:12:51.600Z,3.88
2016-11-11T01:14:00.217Z,3.8
2016-11-11T01:15:08.816Z,3.8
2016-11-11T01:16:17.430Z,3.78
2016-11-11T01:17:26.072Z,3.84
2016-11-11T01:18:34.673Z,3.78
2016-11-11T01:19:43.289Z,3.78
2016-11-11T01:20:51.914Z,3.73
2016-11-11T01:22:00.540Z,3.78
2016-11-11T01:23:09.153Z,3.76
2016-11-11T01:24:17.803Z,3.87
2016-11-11T01:25:26.470Z,3.84
2016-11-11T01:26:35.394Z,3.8
2016-11-11T01:27:44.017Z,3.8
2016-11-11T01:28:52.662Z,3.86
2016-11-11T01:30:01.287Z,3.91
2016-11-11T01:31:10.204Z,3.86
2016-11-11T01:32:18.832Z,3.86
2016-11-11T01:33:27.480Z,3.86
2016-11-11T01:34:36.121Z,3.83
2016-11-11T01:35:44.742Z,3.79
2016-11-11T01:36:53.381Z,3.87
2016-11-11T01:38:02.013Z,3.8
2016-11-11T01:39:10.999Z,3.84
2016-11-11T01:40:19.623Z,3.84
2016-11-11T01:41:28.254Z,3.73
2016-11-11T01:42:36.878Z,3.78
2016-11-11T01:43:45.519Z,3.8
2016-11-11T01:44:54.165Z,3.76
2016-11-11T01:46:02.774Z,3.75
2016-11-11T01:47:11.410Z,3.78
2016-11-11T01:48:20.054Z,3.76
2016-11-11T01:49:28.692Z,3.8
2016-11-11T01:50:37.313Z,3.76
2016-11-11T01:51:45.962Z,3.75
2016-11-11T01:52:54.583Z,3.83
2016-11-11T01:54:03.209Z,3.79
2016-11-11T01:55:11.831Z,3.75
2016-11-11T01:56:20.477Z,3.78
2016-11-11T01:57:29.118Z,3.78
2016-11-11T01:58:37.745Z,3.68
2016-11-11T01:59:46.378Z,3.62
2016-11-11T02:00:54.999Z,3.6
2016-11-11T02:02:03.602Z,3.68
2016-11-11T02:03:12.246Z,3.66
2016-11-11T02:04:20.861Z,3.72
2016-11-11T02:05:29.483Z,3.66
2016-11-11T02:06:38.141Z,3.55
2016-11-11T02:07:46.758Z,3.54
2016-11-11T02:08:55.384Z,3.57
2016-11-11T02:10:04.018Z,3.51
2016-11-11T02:11:12.668Z,3.45
2016-11-11T02:12:21.271Z,3.48
2016-11-11T02:13:29.905Z,3.47
2016-11-11T02:14:38.864Z,3.47
2016-11-11T02:15:47.502Z,3.47
2016-11-11T02:16:56.128Z,3.45
2016-11-11T02:18:04.740Z,3.43
2016-11-11T02:19:13.366Z,3.47
2016-11-11T02:20:21.982Z,3.48
2016-11-11T02:21:30.636Z,3.57
2016-11-11T02:22:39.236Z,3.55
2016-11-11T02:23:47.834Z,3.45
2016-11-11T02:24:56.596Z,3.6
2016-11-11T02:26:05.218Z,3.57
2016-11-11T02:27:13.834Z,3.57
2016-11-11T02:28:22.442Z,3.43
2016-11-11T02:29:31.081Z,3.47
2016-11-11T02:30:40.035Z,3.47
2016-11-11T02:31:48.669Z,3.4
2016-11-11T02:32:57.294Z,3.48
2016-11-11T02:34:05.902Z,3.47
2016-11-11T02:35:14.520Z,3.5
2016-11-11T02:36:23.139Z,3.5
2016-11-11T02:37:31.750Z,3.57
2016-11-11T02:38:40.401Z,3.5
2016-11-11T02:39:49.064Z,3.45
2016-11-11T02:40:57.701Z,3.58
2016-11-11T02:42:06.335Z,3.47
2016-11-11T02:43:14.955Z,3.6
2016-11-11T02:44:23.560Z,3.51
2016-11-11T02:45:32.196Z,3.45
2016-11-11T02:46:40.818Z,3.52
2016-11-11T02:47:49.444Z,3.47
2016-11-11T02:48:58.379Z,3.55
2016-11-11T02:50:07.011Z,3.43
2016-11-11T02:51:15.628Z,3.47
2016-11-11T02:52:24.235Z,3.51
2016-11-11T02:53:32.883Z,3.43
2016-11-11T02:54:41.504Z,3.47
2016-11-11T02:55:50.121Z,3.48
2016-11-11T02:56:58.767Z,3.52
2016-11-11T02:58:07.687Z,3.57
2016-11-11T02:59:16.308Z,3.6
2016-11-11T03:00:24.907Z,3.55
2016-11-11T03:01:33.524Z,3.6
2016-11-11T03:02:42.143Z,3.55
2016-11-11T03:03:50.761Z,3.55
2016-11-11T03:04:59.393Z,3.55
2016-11-11T03:06:08.027Z,3.58
2016-11-11T03:07:16.677Z,3.69
2016-11-11T03:08:25.283Z,3.66
2016-11-11T03:09:33.916Z,3.57
2016-11-11T03:10:42.537Z,3.61
2016-11-11T03:11:51.166Z,3.6
2016-11-11T03:12:59.754Z,3.6
2016-11-11T03:14:08.384Z,3.61
2016-11-11T03:15:17.031Z,3.61
2016-11-11T03:16:25.947Z,3.61
2016-11-11T03:17:34.538Z,3.57
2016-11-11T03:18:43.164Z,3.52
2016-11-11T03:19:51.786Z,3.57
2016-11-11T03:21:00.406Z,3.66
2016-11-11T03:22:09.027Z,3.58
2016-11-11T03:23:17.644Z,3.61
2016-11-11T03:24:26.277Z,3.66
2016-11-11T03:25:34.911Z,3.62
2016-11-11T03:26:43.519Z,3.68
2016-11-11T03:27:52.157Z,3.62
2016-11-11T03:29:00.764Z,3.61
2016-11-11T03:30:09.401Z,3.68
2016-11-11T03:31:18.009Z,3.69
2016-11-11T03:32:26.625Z,3.62
2016-11-11T03:33:35.224Z,3.68
2016-11-11T03:34:43.856Z,3.65
2016-11-11T03:35:52.488Z,3.66
2016-11-11T03:37:01.135Z,3.52
2016-11-11T03:38:09.829Z,3.48
2016-11-11T03:39:18.473Z,3.54
2016-11-11T03:40:27.402Z,3.47
2016-11-11T03:41:36.038Z,3.43
2016-11-11T03:42:44.708Z,3.42
2016-11-11T03:43:53.354Z,3.45
2016-11-11T03:45:02.003Z,3.45
2016-11-11T03:46:10.641Z,3.5
2016-11-11T03:47:19.246Z,3.42
2016-11-11T03:48:27.863Z,3.43
2016-11-11T03:49:36.480Z,3.5
2016-11-11T03:50:45.113Z,3.52
2016-11-11T03:51:53.747Z,3.52
2016-11-11T03:53:02.372Z,3.5
2016-11-11T03:54:10.994Z,3.43
2016-11-11T03:55:19.625Z,3.48
2016-11-11T03:56:28.256Z,3.47
2016-11-11T03:57:36.902Z,3.42
2016-11-11T03:58:45.535Z,3.47
2016-11-11T03:59:54.182Z,3.31
2016-11-11T04:01:02.829Z,3.36
2016-11-11T04:02:11.762Z,3.43
2016-11-11T04:03:20.419Z,3.5
2016-11-11T04:04:29.038Z,3.51
2016-11-11T04:05:37.675Z,3.5
2016-11-11T04:06:46.301Z,3.47
2016-11-11T04:07:54.929Z,3.51
2016-11-11T04:09:03.571Z,3.48
2016-11-11T04:10:12.213Z,3.48
2016-11-11T04:11:20.834Z,3.54
2016-11-11T04:12:29.460Z,3.48
2016-11-11T04:13:38.105Z,3.43
2016-11-11T04:14:46.751Z,3.57
2016-11-11T04:15:55.379Z,3.47
2016-11-11T04:17:04.015Z,3.42
2016-11-11T04:18:12.661Z,3.42
2016-11-11T04:19:21.289Z,3.45
2016-11-11T04:20:29.911Z,3.47
2016-11-11T04:21:38.556Z,3.35
2016-11-11T04:22:47.196Z,3.36
2016-11-11T04:23:55.812Z,3.36
2016-11-11T04:25:04.442Z,3.45
2016-11-11T04:26:13.054Z,3.33
2016-11-11T04:27:21.682Z,3.42
2016-11-11T04:28:30.310Z,3.36
2016-11-11T04:29:38.941Z,3.43
2016-11-11T04:30:47.576Z,3.35
2016-11-11T04:31:56.197Z,3.45
2016-11-11T04:33:04.843Z,3.43
2016-11-11T04:34:13.476Z,3.43
2016-11-11T04:35:22.127Z,3.45
2016-11-11T04:36:30.734Z,3.47
2016-11-11T04:37:39.365Z,3.52
2016-11-11T04:38:47.997Z,3.51
2016-11-11T04:39:56.632Z,3.48
2016-11-11T04:41:05.257Z,3.57
2016-11-11T04:42:13.884Z,3.58
2016-11-11T04:43:22.485Z,3.61
2016-11-11T04:44:31.117Z,3.58
2016-11-11T04:45:40.024Z,3.61
2016-11-11T04:46:48.666Z,3.65
2016-11-11T04:47:57.284Z,3.68
2016-11-11T04:49:06.201Z,3.72
2016-11-11T04:50:14.855Z,3.7
2016-11-11T04:51:23.474Z,3.55
2016-11-11T04:52:32.104Z,3.61
2016-11-11T04:53:40.711Z,3.62
2016-11-11T04:54:49.307Z,3.65
2016-11-11T04:55:57.912Z,3.62
2016-11-11T04:57:06.525Z,3.66
2016-11-11T04:58:15.146Z,3.66
2016-11-11T04:59:23.778Z,3.7
2016-11-11T05:00:32.417Z,3.73
2016-11-11T05:01:41.013Z,3.75
2016-11-11T05:02:49.963Z,3.72
2016-11-11T05:03:58.630Z,3.73
2016-11-11T05:05:07.229Z,3.7
2016-11-11T05:06:15.856Z,3.73
2016-11-11T05:07:24.476Z,3.73
2016-11-11T05:08:33.118Z,3.75
2016-11-11T05:09:41.736Z,3.75
2016-11-11T05:10:50.342Z,3.8
2016-11-11T05:11:58.988Z,3.73
2016-11-11T05:13:07.645Z,3.75
2016-11-11T05:14:16.298Z,3.78
2016-11-11T05:15:24.900Z,3.78
2016-11-11T05:16:33.521Z,3.75
2016-11-11T05:17:42.154Z,3.78
2016-11-11T05:18:50.780Z,3.78
2016-11-11T05:19:59.708Z,3.76
2016-11-11T05:21:08.322Z,3.83
2016-11-11T05:22:16.943Z,3.62
2016-11-11T05:23:25.560Z,3.6
2016-11-11T05:24:34.193Z,3.6
2016-11-11T05:25:42.856Z,3.54
2016-11-11T05:26:51.458Z,3.6
2016-11-11T05:28:00.077Z,3.54
2016-11-11T05:29:08.676Z,3.61
2016-11-11T05:30:17.292Z,3.62
2016-11-11T05:31:25.962Z,3.62
2016-11-11T05:32:34.891Z,3.65
2016-11-11T05:33:43.551Z,3.7
2016-11-11T05:34:52.160Z,3.68
2016-11-11T05:36:00.802Z,3.68
2016-11-11T05:37:09.444Z,3.62
2016-11-11T05:38:18.091Z,3.66
2016-11-11T05:39:27.014Z,3.69
2016-11-11T05:40:35.653Z,3.73
2016-11-11T05:41:44.281Z,3.62
2016-11-11T05:42:52.894Z,3.66
2016-11-11T05:44:01.500Z,3.61
2016-11-11T05:45:10.151Z,3.66
2016-11-11T05:46:18.763Z,3.68
2016-11-11T05:47:27.408Z,3.65
2016-11-11T05:48:36.030Z,3.62
2016-11-11T05:49:44.652Z,3.61
2016-11-11T05:50:53.268Z,3.65
2016-11-11T05:52:01.898Z,3.69
2016-11-11T05:53:10.559Z,3.6
2016-11-11T05:54:19.180Z,3.6
2016-11-11T05:55:27.791Z,3.55
2016-11-11T05:56:36.435Z,3.58
2016-11-11T05:57:45.081Z,3.5
2016-11-11T05:58:53.702Z,3.6
2016-11-11T06:00:02.325Z,3.55
2016-11-11T06:01:10.971Z,3.61
2016-11-11T06:02:19.587Z,3.61
2016-11-11T06:03:28.212Z,3.68
2016-11-11T06:04:36.864Z,3.58
2016-11-11T06:05:45.500Z,3.68
2016-11-11T06:06:54.168Z,3.62
2016-11-11T06:08:02.821Z,3.65
2016-11-11T06:09:11.418Z,3.62
2016-11-11T06:10:20.051Z,3.55
2016-11-11T06:11:28.673Z,3.66
2016-11-11T06:12:37.298Z,3.55
2016-11-11T06:13:45.940Z,3.69
2016-11-11T06:14:54.541Z,3.61
2016-11-11T06:16:03.193Z,3.68
2016-11-11T06:17:11.841Z,3.58
2016-11-11T06:18:20.479Z,3.58
2016-11-11T06:19:29.106Z,3.68
2016-11-11T06:20:37.718Z,3.65
2016-11-11T06:21:46.368Z,3.61
2016-11-11T06:22:54.974Z,3.68
2016-11-11T06:24:03.595Z,3.73
2016-11-11T06:25:12.231Z,3.75
2016-11-11T06:26:20.960Z,3.68
2016-11-11T06:27:29.918Z,3.7
2016-11-11T06:28:38.544Z,3.55
2016-11-11T06:29:47.169Z,3.72
2016-11-11T06:30:56.111Z,3.7
2016-11-11T06:32:04.712Z,3.57
2016-11-11T06:33:13.324Z,3.65
2016-11-11T06:34:21.950Z,3.62
2016-11-11T06:35:30.583Z,3.6
2016-11-11T06:36:39.212Z,3.65
2016-11-11T06:37:47.839Z,3.51
2016-11-11T06:38:56.447Z,3.55
2016-11-11T06:40:05.088Z,3.65
2016-11-11T06:41:14.009Z,3.68
2016-11-11T06:42:22.648Z,3.68
2016-11-11T06:43:31.314Z,3.6
2016-11-11T06:44:39.926Z,3.65
2016-11-11T06:45:48.532Z,3.54
2016-11-11T06:46:57.136Z,3.54
2016-11-11T06:48:05.739Z,3.52
2016-11-11T06:49:14.407Z,3.62
2016-11-11T06:50:23.052Z,3.55
2016-11-11T06:51:31.674Z,3.62
2016-11-11T06:52:40.284Z,3.6
2016-11-11T06:53:48.884Z,3.57
2016-11-11T06:54:57.505Z,3.51
2016-11-11T06:56:06.126Z,3.57
2016-11-11T06:57:14.755Z,3.61
2016-11-11T06:58:23.426Z,3.52
2016-11-11T06:59:32.060Z,3.61
2016-11-11T07:00:40.689Z,3.61
2016-11-11T07:01:49.303Z,3.61
2016-11-11T07:02:57.912Z,3.66
2016-11-11T07:04:06.533Z,3.62
2016-11-11T07:05:15.157Z,3.55
2016-11-11T07:06:23.788Z,3.58
2016-11-11T07:07:32.412Z,3.61
2016-11-11T07:08:41.035Z,3.61
2016-11-11T07:09:49.676Z,3.61
2016-11-11T07:10:58.322Z,3.51
2016-11-11T07:12:06.955Z,3.55
2016-11-11T07:13:15.593Z,3.48
2016-11-11T07:14:24.211Z,3.57
2016-11-11T07:15:32.869Z,3.57
2016-11-11T07:16:41.485Z,3.54
2016-11-11T07:17:50.106Z,3.55
2016-11-11T07:18:58.720Z,3.58
2016-11-11T07:20:07.346Z,3.6
2016-11-11T07:21:15.947Z,3.66
2016-11-11T07:22:24.545Z,3.65
2016-11-11T07:23:33.168Z,3.6
2016-11-11T07:24:41.801Z,3.62
2016-11-11T07:25:50.452Z,3.6
2016-11-11T07:26:59.072Z,3.55
2016-11-11T07:28:07.714Z,3.6
2016-11-11T07:29:16.343Z,3.7
2016-11-11T07:30:25.286Z,3.69
2016-11-11T07:31:33.903Z,3.7
2016-11-11T07:32:42.548Z,3.61
2016-11-11T07:33:51.149Z,3.66
2016-11-11T07:34:59.770Z,3.69
2016-11-11T07:36:08.402Z,3.68
2016-11-11T07:37:17.040Z,3.58
2016-11-11T07:38:25.661Z,3.7
2016-11-11T07:39:34.630Z,3.68
2016-11-11T07:40:43.255Z,3.8
2016-11-11T07:41:51.873Z,3.68
2016-11-11T07:43:00.518Z,3.75
2016-11-11T07:44:09.139Z,3.76
2016-11-11T07:45:17.761Z,3.78
2016-11-11T07:46:26.390Z,3.86
2016-11-11T07:47:35.025Z,3.84
2016-11-11T07:48:43.944Z,3.88
2016-11-11T07:49:52.570Z,3.75
2016-11-11T07:51:01.192Z,3.8
2016-11-11T07:52:09.816Z,3.84
2016-11-11T07:53:18.434Z,3.84
2016-11-11T07:54:27.049Z,3.87
2016-11-11T07:55:35.701Z,3.78
2016-11-11T07:56:44.329Z,3.73
2016-11-11T07:57:53.000Z,3.79
2016-11-11T07:59:01.621Z,3.75
2016-11-11T08:00:10.260Z,3.79
2016-11-11T08:01:18.862Z,3.84
2016-11-11T08:02:27.465Z,3.88
2016-11-11T08:03:36.102Z,3.97
2016-11-11T08:04:44.722Z,4.02
2016-11-11T08:05:53.336Z,4
2016-11-11T08:07:01.969Z,3.96
2016-11-11T08:08:10.608Z,4.08
2016-11-11T08:09:19.232Z,4
2016-11-11T08:10:27.857Z,3.98
2016-11-11T08:11:36.505Z,3.94
2016-11-11T08:12:45.438Z,3.98
2016-11-11T08:13:54.121Z,3.96
2016-11-11T08:15:02.755Z,3.93
2016-11-11T08:16:11.356Z,3.94
2016-11-11T08:17:20.005Z,3.98
2016-11-11T08:18:28.623Z,3.94
2016-11-11T08:19:37.270Z,3.97
2016-11-11T08:20:45.897Z,3.94
2016-11-11T08:21:54.547Z,3.93
2016-11-11T08:23:03.227Z,3.84
2016-11-11T08:24:11.856Z,3.78
2016-11-11T08:25:20.502Z,3.86
2016-11-11T08:26:29.116Z,3.94
2016-11-11T08:27:37.742Z,4.04
2016-11-11T08:28:46.363Z,4.05
2016-11-11T08:29:54.979Z,3.96
2016-11-11T08:31:03.613Z,3.9
2016-11-11T08:32:12.255Z,3.97
2016-11-11T08:33:20.867Z,4
2016-11-11T08:34:29.493Z,4.06
2016-11-11T08:35:38.150Z,4.02
2016-11-11T08:36:46.793Z,4.02
2016-11-11T08:37:55.411Z,4
2016-11-11T08:39:04.048Z,4.09
2016-11-11T08:40:12.719Z,4.08
2016-11-11T08:41:21.348Z,4.16
2016-11-11T08:42:29.974Z,4.15
2016-11-11T08:43:38.621Z,4.22
2016-11-11T08:44:47.229Z,4.33
2016-11-11T08:45:55.854Z,4.27
2016-11-11T08:47:04.475Z,4.15
2016-11-11T08:48:13.092Z,4.27
2016-11-11T08:49:21.743Z,4.24
2016-11-11T08:50:30.667Z,4.27
2016-11-11T08:51:39.310Z,4.11
2016-11-11T08:52:47.934Z,4.12
2016-11-11T08:53:56.561Z,4.18
2016-11-11T08:55:05.184Z,4.24
2016-11-11T08:56:13.815Z,4.15
2016-11-11T08:57:22.450Z,4.2
2016-11-11T08:58:31.082Z,4.16
2016-11-11T08:59:39.704Z,4.32
2016-11-11T09:00:48.307Z,4.37
2016-11-11T09:01:56.977Z,4.51
2016-11-11T09:03:05.616Z,4.58
2016-11-11T09:04:14.263Z,4.63
2016-11-11T09:05:22.896Z,4.8
2016-11-11T09:06:31.529Z,4.73
2016-11-11T09:07:40.154Z,4.73
2016-11-11T09:08:48.772Z,4.86
2016-11-11T09:09:57.418Z,4.88
2016-11-11T09:11:06.044Z,4.86
2016-11-11T09:12:14.661Z,4.89
2016-11-11T09:13:23.319Z,4.86
2016-11-11T09:14:31.940Z,4.85
2016-11-11T09:15:40.563Z,4.89
2016-11-11T09:16:49.207Z,4.86
2016-11-11T09:17:57.841Z,4.84
2016-11-11T09:19:06.473Z,4.91
2016-11-11T09:20:15.095Z,4.85
2016-11-11T09:21:23.734Z,4.82
2016-11-11T09:22:32.354Z,4.78
2016-11-11T09:23:41.296Z,4.89
2016-11-11T09:24:49.905Z,4.86
2016-11-11T09:25:58.545Z,4.82
2016-11-11T09:27:07.134Z,4.85
2016-11-11T09:28:15.738Z,4.94
2016-11-11T09:29:24.676Z,4.91
2016-11-11T09:30:33.330Z,4.8
2016-11-11T09:31:41.949Z,4.59
2016-11-11T09:32:50.590Z,4.45
2016-11-11T09:33:59.265Z,4.47
2016-11-11T09:35:07.886Z,4.47
2016-11-11T09:36:16.533Z,4.65
2016-11-11T09:37:25.203Z,4.6
2016-11-11T09:38:33.845Z,4.67
2016-11-11T09:39:42.503Z,4.59
2016-11-11T09:40:51.123Z,4.58
2016-11-11T09:41:59.759Z,4.72
2016-11-11T09:43:08.679Z,4.85
2016-11-11T09:44:17.306Z,4.88
2016-11-11T09:45:25.958Z,4.78
2016-11-11T09:46:34.600Z,4.6
2016-11-11T09:47:43.218Z,4.7
2016-11-11T09:48:51.836Z,4.66
2016-11-11T09:50:00.460Z,4.6
2016-11-11T09:51:09.109Z,4.75
2016-11-11T09:52:17.727Z,4.84
2016-11-11T09:53:26.352Z,5.03
2016-11-11T09:54:34.994Z,5.03
2016-11-11T09:55:43.611Z,5.35
2016-11-11T09:56:52.243Z,5.39
2016-11-11T09:58:00.866Z,5.35
2016-11-11T09:59:09.486Z,5.36
2016-11-11T10:00:18.124Z,5.31
2016-11-11T10:01:26.741Z,5.1
2016-11-11T10:02:35.352Z,4.85
2016-11-11T10:03:43.988Z,4.82
2016-11-11T10:04:52.608Z,4.86
2016-11-11T10:06:01.234Z,4.85
2016-11-11T10:07:09.897Z,4.89
2016-11-11T10:08:18.530Z,4.75
2016-11-11T10:09:27.189Z,4.73
2016-11-11T10:10:35.815Z,4.59
2016-11-11T10:11:44.414Z,4.67
2016-11-11T10:12:53.044Z,4.77
2016-11-11T10:14:01.986Z,4.84
2016-11-11T10:15:10.645Z,4.92
2016-11-11T10:16:19.290Z,4.99
2016-11-11T10:17:27.912Z,4.85
2016-11-11T10:18:36.533Z,5.15
2016-11-11T10:19:45.162Z,4.97
2016-11-11T10:20:53.780Z,5.02
2016-11-11T10:22:02.413Z,5
2016-11-11T10:23:11.055Z,5.06
2016-11-11T10:24:19.688Z,5.2
2016-11-11T10:25:28.319Z,5.24
2016-11-11T10:26:36.946Z,5.24
2016-11-11T10:27:45.580Z,5.38
2016-11-11T10:28:54.185Z,5.43
2016-11-11T10:30:02.830Z,5.53
2016-11-11T10:31:11.465Z,5.54
2016-11-11T10:32:20.110Z,5.53
2016-11-11T10:33:28.720Z,5.49
2016-11-11T10:34:37.357Z,5.53
2016-11-11T10:35:46.003Z,5.48
2016-11-11T10:36:54.644Z,5.42
2016-11-11T10:38:03.271Z,5.39
2016-11-11T10:39:11.871Z,5.4
2016-11-11T10:40:20.488Z,5.53
2016-11-11T10:41:29.137Z,5.51
2016-11-11T10:42:37.759Z,5.49
2016-11-11T10:43:46.372Z,5.61
2016-11-11T10:44:55.003Z,5.57
2016-11-11T10:46:03.621Z,5.65
2016-11-11T10:47:12.264Z,5.74
2016-11-11T10:48:20.881Z,5.72
2016-11-11T10:49:29.506Z,5.61
2016-11-11T10:50:38.125Z,5.49
2016-11-11T10:51:46.751Z,5.53
2016-11-11T10:52:55.398Z,5.51
2016-11-11T10:54:04.036Z,5.56
2016-11-11T10:55:12.690Z,5.51
2016-11-11T10:56:21.358Z,5.63
2016-11-11T10:57:29.975Z,5.68
2016-11-11T10:58:38.602Z,5.65
2016-11-11T10:59:47.218Z,5.68
2016-11-11T11:00:55.843Z,5.74
2016-11-11T11:02:04.464Z,5.68
2016-11-11T11:03:13.110Z,5.6
2016-11-11T11:04:22.038Z,5.36
2016-11-11T11:05:30.647Z,5.38
2016-11-11T11:06:39.280Z,5.25
2016-11-11T11:07:47.898Z,5.3
2016-11-11T11:08:56.513Z,5.4
2016-11-11T11:10:05.460Z,5.51
2016-11-11T11:11:14.078Z,5.56
2016-11-11T11:12:22.707Z,5.63
2016-11-11T11:13:31.332Z,5.78
2016-11-11T11:14:39.954Z,5.97
2016-11-11T11:15:48.588Z,6.18
2016-11-11T11:16:57.213Z,6.3
2016-11-11T11:18:05.835Z,6.48
2016-11-11T11:19:14.495Z,6.4
2016-11-11T11:20:23.151Z,6.43
2016-11-11T11:21:31.797Z,6.41
2016-11-11T11:22:40.444Z,6.33
2016-11-11T11:23:49.111Z,6.19
2016-11-11T11:24:58.059Z,6.17
2016-11-11T11:26:06.668Z,6.25
2016-11-11T11:27:15.285Z,6.04
2016-11-11T11:28:23.924Z,6
2016-11-11T11:29:32.545Z,6
2016-11-11T11:30:41.195Z,6.11
2016-11-11T11:31:49.820Z,6.19
2016-11-11T11:32:58.459Z,6.25
2016-11-11T11:34:07.100Z,6.27
2016-11-11T11:35:15.735Z,6.44
2016-11-11T11:36:24.377Z,6.28
2016-11-11T11:37:33.293Z,6.3
2016-11-11T11:38:41.897Z,6.12
2016-11-11T11:39:50.538Z,6.03
2016-11-11T11:40:59.135Z,6.09
2016-11-11T11:42:07.777Z,6.14
2016-11-11T11:43:16.427Z,6.25
2016-11-11T11:44:25.041Z,6.3
2016-11-11T11:45:33.662Z,6.38
2016-11-11T11:46:42.287Z,6.34
2016-11-11T11:47:50.933Z,6.25
2016-11-11T11:48:59.562Z,6.28
2016-11-11T11:50:08.203Z,6.19
2016-11-11T11:51:17.122Z,6.17
2016-11-11T11:52:25.794Z,6.09
2016-11-11T11:53:34.438Z,6.12
2016-11-11T11:54:43.089Z,6.28
2016-11-11T11:55:51.726Z,6.46
2016-11-11T11:57:00.352Z,6.59
2016-11-11T11:58:09.260Z,6.51
2016-11-11T11:59:18.220Z,6.3
2016-11-11T12:00:26.842Z,6.34
2016-11-11T12:01:35.469Z,6.22
2016-11-11T12:02:44.107Z,6.15
2016-11-11T12:03:52.760Z,5.96
2016-11-11T12:05:01.407Z,5.83
2016-11-11T12:06:10.041Z,5.68
2016-11-11T12:07:18.694Z,5.58
2016-11-11T12:08:27.334Z,5.56
2016-11-11T12:09:35.980Z,5.49
2016-11-11T12:10:44.602Z,5.42
2016-11-11T12:11:53.248Z,5.54
2016-11-11T12:13:01.881Z,5.58
2016-11-11T12:14:10.495Z,5.6
2016-11-11T12:15:19.136Z,5.54
2016-11-11T12:16:28.068Z,5.33
2016-11-11T12:17:36.710Z,5.43
2016-11-11T12:18:45.325Z,5.4
2016-11-11T12:19:53.957Z,5.39
2016-11-11T12:21:02.595Z,5.45
2016-11-11T12:22:11.242Z,5.53
2016-11-11T12:23:19.846Z,5.49
2016-11-11T12:24:28.792Z,5.48
2016-11-11T12:25:37.410Z,5.56
2016-11-11T12:26:46.079Z,5.61
2016-11-11T12:27:54.729Z,5.75
2016-11-11T12:29:03.372Z,5.91
2016-11-11T12:30:11.985Z,5.93
2016-11-11T12:31:20.606Z,5.86
2016-11-11T12:32:29.260Z,5.86
2016-11-11T12:33:37.903Z,5.89
2016-11-11T12:34:46.558Z,5.81
2016-11-11T12:35:55.190Z,5.68
2016-11-11T12:37:04.119Z,5.91
2016-11-11T12:38:12.721Z,6.01
2016-11-11T12:39:21.359Z,6.19
2016-11-11T12:40:29.975Z,6.19
2016-11-11T12:41:38.609Z,6.14
2016-11-11T12:42:47.281Z,5.79
2016-11-11T12:43:55.919Z,5.71
2016-11-11T12:45:04.621Z,5.71
2016-11-11T12:46:13.259Z,5.71
2016-11-11T12:47:22.463Z,5.61
2016-11-11T12:48:31.097Z,5.6
2016-11-11T12:49:39.731Z,5.65
2016-11-11T12:50:48.370Z,5.51
2016-11-11T12:51:56.990Z,5.63
2016-11-11T12:53:05.640Z,5.65
2016-11-11T12:54:14.237Z,5.61
2016-11-11T12:55:22.874Z,5.81
2016-11-11T12:56:31.508Z,6.12
2016-11-11T12:57:40.154Z,6.27
2016-11-11T12:58:48.788Z,6.43
2016-11-11T12:59:57.433Z,6.49
2016-11-11T13:01:06.056Z,6.61
2016-11-11T13:02:14.680Z,6.73
2016-11-11T13:03:23.336Z,6.87
2016-11-11T13:04:31.948Z,6.84
2016-11-11T13:05:40.873Z,6.79
2016-11-11T13:06:49.493Z,6.66
2016-11-11T13:07:58.112Z,6.74
2016-11-11T13:09:06.753Z,6.74
2016-11-11T13:10:15.686Z,6.62
2016-11-11T13:11:24.329Z,6.79
2016-11-11T13:12:32.966Z,6.81
2016-11-11T13:13:41.613Z,6.88
2016-11-11T13:14:50.572Z,7.09
2016-11-11T13:15:59.184Z,7.39
2016-11-11T13:17:08.134Z,7.39
2016-11-11T13:18:16.751Z,7.42
2016-11-11T13:19:25.380Z,7.23
2016-11-11T13:20:34.015Z,7.3
2016-11-11T13:21:42.698Z,7.2
2016-11-11T13:22:51.373Z,7.48
2016-11-11T13:24:00.032Z,7.27
2016-11-11T13:25:08.631Z,7.23
2016-11-11T13:26:17.258Z,7.15
2016-11-11T13:27:25.891Z,6.89
2016-11-11T13:28:34.524Z,6.88
2016-11-11T13:29:43.183Z,6.74
2016-11-11T13:30:51.804Z,6.55
2016-11-11T13:32:00.433Z,6.55
2016-11-11T13:33:09.059Z,6.4
2016-11-11T13:34:17.697Z,6.36
2016-11-11T13:35:26.301Z,6.4
2016-11-11T13:36:34.921Z,6.44
2016-11-11T13:37:43.567Z,6.41
2016-11-11T13:38:52.210Z,6.28
2016-11-11T13:40:01.153Z,6.19
2016-11-11T13:41:09.782Z,5.9
2016-11-11T13:42:18.408Z,5.79
2016-11-11T13:43:27.043Z,5.76
2016-11-11T13:44:35.642Z,5.78
2016-11-11T13:45:44.257Z,5.79
2016-11-11T13:46:52.874Z,5.86
2016-11-11T13:48:01.485Z,5.81
2016-11-11T13:49:10.108Z,5.93
2016-11-11T13:50:18.723Z,6.01
2016-11-11T13:51:27.348Z,6.03
2016-11-11T13:52:35.983Z,6.08
2016-11-11T13:53:44.626Z,5.99
2016-11-11T13:55:10.930Z,9.14
2016-11-11T13:56:19.574Z,11.04
2016-11-11T13:57:08.774Z,12.23
2016-11-11T13:58:17.390Z,10.71
2016-11-11T13:59:25.989Z,8.71
2016-11-11T14:00:34.610Z,6.64
2016-11-11T14:01:43.206Z,5.22
2016-11-11T14:02:51.825Z,4.33
2016-11-11T14:04:00.465Z,3.8
2016-11-11T14:05:09.092Z,3.29
2016-11-11T14:06:17.719Z,3.08
2016-11-11T14:07:26.359Z,2.87
2016-11-11T14:08:34.963Z,2.71
2016-11-11T14:09:43.580Z,2.56
2016-11-11T14:10:52.192Z,2.52
2016-11-11T14:12:00.813Z,2.48
2016-11-11T14:13:09.949Z,2.52
2016-11-11T14:14:18.568Z,2.35
2016-11-11T14:15:27.177Z,2.41
2016-11-11T14:16:35.781Z,2.38
2016-11-11T14:17:44.399Z,2.39
2016-11-11T14:18:53.016Z,2.3
2016-11-11T14:20:01.624Z,2.39
2016-11-11T14:21:10.244Z,2.39
2016-11-11T14:22:18.861Z,2.28
2016-11-11T14:23:27.775Z,2.31
2016-11-11T14:24:36.378Z,2.24
2016-11-11T14:25:44.974Z,2.3
2016-11-11T14:26:53.594Z,2.27
2016-11-11T14:28:02.522Z,2.3
2016-11-11T14:29:11.155Z,2.3
2016-11-11T14:30:19.764Z,2.16
2016-11-11T14:31:28.373Z,2.07
2016-11-11T14:32:36.972Z,2.23
2016-11-11T14:33:45.594Z,2.25
2016-11-11T14:34:54.223Z,2.24
2016-11-11T14:36:02.841Z,2.23
2016-11-11T14:37:11.440Z,2.28
2016-11-11T14:38:20.063Z,2.41
2016-11-11T14:39:28.682Z,2.36
2016-11-11T14:40:37.304Z,2.27
2016-11-11T14:41:45.917Z,2.43
2016-11-11T14:42:54.572Z,2.61
2016-11-11T14:44:03.192Z,2.56
2016-11-11T14:45:11.811Z,2.38
2016-11-11T14:46:20.433Z,2.36
2016-11-11T14:47:29.043Z,2.2
2016-11-11T14:48:37.698Z,2.1
2016-11-11T14:49:46.298Z,2.07
2016-11-11T14:50:54.910Z,1.95
2016-11-11T14:52:03.535Z,1.93
2016-11-11T14:53:12.156Z,1.77
2016-11-11T14:54:20.749Z,1.7
2016-11-11T14:55:29.349Z,1.65
2016-11-11T14:56:37.978Z,1.62
2016-11-11T14:57:46.612Z,1.68
2016-11-11T14:58:55.217Z,1.62
2016-11-11T15:00:04.137Z,1.62
2016-11-11T15:01:12.751Z,1.63
2016-11-11T15:02:21.347Z,1.48
2016-11-11T15:03:29.996Z,1.41
2016-11-11T15:04:38.594Z,1.44
2016-11-11T15:05:47.185Z,1.41
2016-11-11T15:06:55.790Z,1.23
2016-11-11T15:08:04.423Z,1.16
2016-11-11T15:09:13.024Z,1.26
2016-11-11T15:10:21.652Z,1.18
2016-11-11T15:11:30.271Z,1.2
2016-11-11T15:12:38.895Z,1.05
2016-11-11T15:13:47.508Z,1.08
2016-11-11T15:14:56.132Z,0.97
2016-11-11T15:16:04.759Z,0.93
2016-11-11T15:17:13.392Z,0.97
2016-11-11T15:18:22.017Z,1.02